createdAt,value
2023-03-30T00:00:43.538Z,0.00
2023-03-30T00:01:43.551Z,0.00
2023-03-30T00:02:43.644Z,0.00
2023-03-30T00:03:43.656Z,0.00
2023-03-30T00:04:43.584Z,0.00
2023-03-30T00:05:43.494Z,0.00
2023-03-30T00:06:43.487Z,0.00
2023-03-30T00:07:43.464Z,0.00
2023-03-30T00:08:43.470Z,0.00
2023-03-30T00:09:43.476Z,0.00
2023-03-30T00:10:43.432Z,0.00
2023-03-30T00:11:43.448Z,0.00
2023-03-30T00:12:43.411Z,0.00
2023-03-30T00:13:43.395Z,0.00
2023-03-30T00:14:43.411Z,0.00
2023-03-30T00:15:43.362Z,0.00
2023-03-30T00:16:43.370Z,0.00
2023-03-30T00:17:43.381Z,0.00
2023-03-30T00:18:43.338Z,0.00
2023-03-30T00:19:43.340Z,0.00
2023-03-30T00:20:43.393Z,0.00
2023-03-30T00:21:43.328Z,0.00
2023-03-30T00:22:43.293Z,0.00
2023-03-30T00:23:43.291Z,0.00
2023-03-30T00:24:43.270Z,0.00
2023-03-30T00:25:43.254Z,0.00
2023-03-30T00:26:43.246Z,0.00
2023-03-30T00:27:43.264Z,0.00
2023-03-30T00:28:43.266Z,0.00
2023-03-30T00:29:43.215Z,0.00
2023-03-30T00:30:43.210Z,0.00
2023-03-30T00:31:43.272Z,0.00
2023-03-30T00:32:43.255Z,0.00
2023-03-30T00:33:46.317Z,0.00
2023-03-30T00:34:43.158Z,0.00
2023-03-30T00:35:43.190Z,0.00
2023-03-30T00:36:43.130Z,0.00
2023-03-30T00:37:43.120Z,0.00
2023-03-30T00:38:43.135Z,0.00
2023-03-30T00:39:43.117Z,0.00
2023-03-30T00:40:43.083Z,0.00
2023-03-30T00:41:43.073Z,0.00
2023-03-30T00:42:43.087Z,0.00
2023-03-30T00:43:43.072Z,0.00
2023-03-30T00:44:43.043Z,0.00
2023-03-30T00:45:43.058Z,0.00
2023-03-30T00:46:43.025Z,0.00
2023-03-30T00:47:43.091Z,0.00
2023-03-30T00:48:43.013Z,0.00
2023-03-30T00:49:43.027Z,0.00
2023-03-30T00:50:42.977Z,0.00
2023-03-30T00:51:42.978Z,0.00
2023-03-30T00:52:42.974Z,0.00
2023-03-30T00:53:42.938Z,0.00
2023-03-30T00:54:42.930Z,0.00
2023-03-30T00:55:42.946Z,0.00
2023-03-30T00:56:42.969Z,0.00
2023-03-30T00:57:42.897Z,0.00
2023-03-30T00:58:42.909Z,0.00
2023-03-30T00:59:42.896Z,0.00
2023-03-30T01:00:42.885Z,0.00
2023-03-30T01:01:43.019Z,0.00
2023-03-30T01:02:42.946Z,0.00
2023-03-30T01:03:42.963Z,0.00
2023-03-30T01:04:42.818Z,0.00
2023-03-30T01:05:42.844Z,0.00
2023-03-30T01:06:42.846Z,0.00
2023-03-30T01:07:42.785Z,0.00
2023-03-30T01:08:42.781Z,0.00
2023-03-30T01:09:42.802Z,0.00
2023-03-30T01:10:42.763Z,0.00
2023-03-30T01:11:42.749Z,0.00
2023-03-30T01:12:42.732Z,0.00
2023-03-30T01:13:42.718Z,0.00
2023-03-30T01:14:42.736Z,0.00
2023-03-30T01:15:42.795Z,0.00
2023-03-30T01:16:42.700Z,0.00
2023-03-30T01:17:42.771Z,0.00
2023-03-30T01:18:42.667Z,0.00
2023-03-30T01:19:42.671Z,0.00
2023-03-30T01:20:42.640Z,0.00
2023-03-30T01:21:42.650Z,0.00
2023-03-30T01:22:42.636Z,0.00
2023-03-30T01:23:42.604Z,0.00
2023-03-30T01:24:42.589Z,0.00
2023-03-30T01:25:42.584Z,0.00
2023-03-30T01:26:42.591Z,0.00
2023-03-30T01:27:42.558Z,0.00
2023-03-30T01:28:42.568Z,0.00
2023-03-30T01:29:42.537Z,0.00
2023-03-30T01:30:42.530Z,0.00
2023-03-30T01:31:42.661Z,0.00
2023-03-30T01:32:42.563Z,0.00
2023-03-30T01:33:42.527Z,0.00
2023-03-30T01:34:42.517Z,0.00
2023-03-30T01:35:42.566Z,0.00
2023-03-30T01:36:42.464Z,0.00
2023-03-30T01:37:42.462Z,0.00
2023-03-30T01:38:42.449Z,0.00
2023-03-30T01:39:42.433Z,0.00
2023-03-30T01:40:42.445Z,0.00
2023-03-30T01:41:42.410Z,0.00
2023-03-30T01:42:42.390Z,0.00
2023-03-30T01:43:42.406Z,0.00
2023-03-30T01:44:42.372Z,0.00
2023-03-30T01:45:42.386Z,0.00
2023-03-30T01:46:42.413Z,0.00
2023-03-30T01:47:42.388Z,0.00
2023-03-30T01:48:42.328Z,0.00
2023-03-30T01:49:42.314Z,0.00
2023-03-30T01:50:42.325Z,0.00
2023-03-30T01:51:42.319Z,0.00
2023-03-30T01:52:42.325Z,0.00
2023-03-30T01:53:42.289Z,0.00
2023-03-30T01:54:42.259Z,0.00
2023-03-30T01:55:42.258Z,0.00
2023-03-30T01:56:42.278Z,0.00
2023-03-30T01:57:42.265Z,0.00
2023-03-30T01:58:42.229Z,0.00
2023-03-30T01:59:42.221Z,0.00
2023-03-30T02:00:42.238Z,0.00
2023-03-30T02:01:42.213Z,0.00
2023-03-30T02:02:42.246Z,0.00
2023-03-30T02:03:42.443Z,0.00
2023-03-30T02:04:42.154Z,0.00
2023-03-30T02:05:42.168Z,0.00
2023-03-30T02:06:42.120Z,0.00
2023-03-30T02:07:42.144Z,0.00
2023-03-30T02:08:42.094Z,0.00
2023-03-30T02:09:42.111Z,0.00
2023-03-30T02:10:42.106Z,0.00
2023-03-30T02:11:42.142Z,0.00
2023-03-30T02:12:42.063Z,0.00
2023-03-30T02:13:42.131Z,0.00
2023-03-30T02:14:42.083Z,0.00
2023-03-30T02:15:42.038Z,0.00
2023-03-30T02:16:42.057Z,0.00
2023-03-30T02:17:42.057Z,0.00
2023-03-30T02:18:41.987Z,0.00
2023-03-30T02:19:42.039Z,0.00
2023-03-30T02:20:41.972Z,0.00
2023-03-30T02:21:41.971Z,0.00
2023-03-30T02:22:41.972Z,0.00
2023-03-30T02:23:41.961Z,0.00
2023-03-30T02:24:41.928Z,0.00
2023-03-30T02:25:41.925Z,0.00
2023-03-30T02:26:41.938Z,0.00
2023-03-30T02:27:42.002Z,0.00
2023-03-30T02:28:41.878Z,0.00
2023-03-30T02:29:41.865Z,0.00
2023-03-30T02:30:41.873Z,0.00
2023-03-30T02:31:41.891Z,0.00
2023-03-30T02:32:41.956Z,0.00
2023-03-30T02:33:41.818Z,0.00
2023-03-30T02:34:41.822Z,0.00
2023-03-30T02:35:41.896Z,0.00
2023-03-30T02:36:41.829Z,0.00
2023-03-30T02:37:41.810Z,0.00
2023-03-30T02:38:41.768Z,0.00
2023-03-30T02:39:41.757Z,0.00
2023-03-30T02:40:41.741Z,0.00
2023-03-30T02:41:41.737Z,0.00
2023-03-30T02:42:41.748Z,0.00
2023-03-30T02:43:41.709Z,0.00
2023-03-30T02:44:41.693Z,0.00
2023-03-30T02:45:41.741Z,0.00
2023-03-30T02:46:41.672Z,0.00
2023-03-30T02:47:41.764Z,0.00
2023-03-30T02:48:41.675Z,0.00
2023-03-30T02:49:41.644Z,0.00
2023-03-30T02:50:41.630Z,0.00
2023-03-30T02:51:41.644Z,0.00
2023-03-30T02:52:41.614Z,0.00
2023-03-30T02:53:41.618Z,0.00
2023-03-30T02:54:41.588Z,0.00
2023-03-30T02:55:41.578Z,0.00
2023-03-30T02:56:41.624Z,0.00
2023-03-30T02:57:41.564Z,0.00
2023-03-30T02:58:41.566Z,0.00
2023-03-30T02:59:41.525Z,0.00
2023-03-30T03:00:41.554Z,0.00
2023-03-30T03:01:41.552Z,0.00
2023-03-30T03:02:41.548Z,0.00
2023-03-30T03:03:41.607Z,0.00
2023-03-30T03:04:41.510Z,0.00
2023-03-30T03:05:41.466Z,0.00
2023-03-30T03:06:41.469Z,0.00
2023-03-30T03:07:41.466Z,0.00
2023-03-30T03:08:41.446Z,0.00
2023-03-30T03:09:41.444Z,0.00
2023-03-30T03:10:41.448Z,0.00
2023-03-30T03:11:41.400Z,0.00
2023-03-30T03:12:41.380Z,0.00
2023-03-30T03:13:41.387Z,0.00
2023-03-30T03:14:41.369Z,0.00
2023-03-30T03:15:41.358Z,0.00
2023-03-30T03:16:41.353Z,0.00
2023-03-30T03:17:41.389Z,0.00
2023-03-30T03:18:41.341Z,0.00
2023-03-30T03:19:41.313Z,0.00
2023-03-30T03:20:41.293Z,0.00
2023-03-30T03:21:41.314Z,0.00
2023-03-30T03:22:41.274Z,0.00
2023-03-30T03:23:41.312Z,0.00
2023-03-30T03:24:41.257Z,0.00
2023-03-30T03:25:41.243Z,0.00
2023-03-30T03:26:41.226Z,0.00
2023-03-30T03:27:41.237Z,0.00
2023-03-30T03:28:41.216Z,0.00
2023-03-30T03:29:41.222Z,0.00
2023-03-30T03:30:41.226Z,0.00
2023-03-30T03:31:41.226Z,0.00
2023-03-30T03:32:41.215Z,0.00
2023-03-30T03:33:41.148Z,0.00
2023-03-30T03:34:41.136Z,0.00
2023-03-30T03:35:41.163Z,0.00
2023-03-30T03:36:41.117Z,0.00
2023-03-30T03:37:41.119Z,0.00
2023-03-30T03:38:41.108Z,0.00
2023-03-30T03:39:41.107Z,0.00
2023-03-30T03:40:41.071Z,0.00
2023-03-30T03:41:41.081Z,0.00
2023-03-30T03:42:41.046Z,0.00
2023-03-30T03:43:41.043Z,0.00
2023-03-30T03:44:41.046Z,0.00
2023-03-30T03:45:41.012Z,0.00
2023-03-30T03:46:41.018Z,0.00
2023-03-30T03:47:41.037Z,0.00
2023-03-30T03:48:40.981Z,0.00
2023-03-30T03:49:40.991Z,0.00
2023-03-30T03:50:40.983Z,0.00
2023-03-30T03:51:40.953Z,0.00
2023-03-30T03:52:40.934Z,0.00
2023-03-30T03:53:40.922Z,0.00
2023-03-30T03:54:40.916Z,0.00
2023-03-30T03:55:40.952Z,0.00
2023-03-30T03:56:40.924Z,0.00
2023-03-30T03:57:40.886Z,0.00
2023-03-30T03:58:40.876Z,0.00
2023-03-30T03:59:40.861Z,0.00
2023-03-30T04:00:40.870Z,0.00
2023-03-30T04:01:40.884Z,0.00
2023-03-30T04:02:40.876Z,0.00
2023-03-30T04:03:40.833Z,0.00
2023-03-30T04:04:40.810Z,0.00
2023-03-30T04:05:40.827Z,0.00
2023-03-30T04:06:40.791Z,0.00
2023-03-30T04:07:40.771Z,0.00
2023-03-30T04:08:40.758Z,0.00
2023-03-30T04:09:40.778Z,0.00
2023-03-30T04:10:40.781Z,0.00
2023-03-30T04:11:40.741Z,0.00
2023-03-30T04:12:40.713Z,0.00
2023-03-30T04:13:40.703Z,0.00
2023-03-30T04:14:40.712Z,0.00
2023-03-30T04:15:40.686Z,0.00
2023-03-30T04:16:40.821Z,0.00
2023-03-30T04:17:40.682Z,0.00
2023-03-30T04:18:40.675Z,0.00
2023-03-30T04:19:40.629Z,0.00
2023-03-30T04:20:40.641Z,0.00
2023-03-30T04:21:40.632Z,0.00
2023-03-30T04:22:40.604Z,0.00
2023-03-30T04:23:40.611Z,0.00
2023-03-30T04:24:40.579Z,0.00
2023-03-30T04:25:40.604Z,0.00
2023-03-30T04:26:40.592Z,0.00
2023-03-30T04:27:40.574Z,0.00
2023-03-30T04:28:40.578Z,0.00
2023-03-30T04:29:40.544Z,0.00
2023-03-30T04:30:40.516Z,0.00
2023-03-30T04:31:40.546Z,0.00
2023-03-30T04:32:40.579Z,0.00
2023-03-30T04:33:40.527Z,0.00
2023-03-30T04:34:40.490Z,4.00
2023-03-30T04:35:40.489Z,0.00
2023-03-30T04:36:40.442Z,0.00
2023-03-30T04:37:40.433Z,4.00
2023-03-30T04:38:40.431Z,4.00
2023-03-30T04:39:40.413Z,4.00
2023-03-30T04:40:40.418Z,4.00
2023-03-30T04:41:40.420Z,4.00
2023-03-30T04:42:40.382Z,4.00
2023-03-30T04:43:40.392Z,8.00
2023-03-30T04:44:40.380Z,4.00
2023-03-30T04:45:40.410Z,8.00
2023-03-30T04:46:40.358Z,12.00
2023-03-30T04:47:40.347Z,12.00
2023-03-30T04:48:40.311Z,12.00
2023-03-30T04:49:40.317Z,12.00
2023-03-30T04:50:40.312Z,12.00
2023-03-30T04:51:40.296Z,12.00
2023-03-30T04:52:40.285Z,16.00
2023-03-30T04:53:40.309Z,16.00
2023-03-30T04:54:40.251Z,16.00
2023-03-30T04:55:40.256Z,16.00
2023-03-30T04:56:40.476Z,20.00
2023-03-30T04:57:40.211Z,24.00
2023-03-30T04:58:40.225Z,28.00
2023-03-30T04:59:40.211Z,36.00
2023-03-30T05:00:40.178Z,40.00
2023-03-30T05:01:40.233Z,48.00
2023-03-30T05:02:40.329Z,60.00
2023-03-30T05:03:40.234Z,72.00
2023-03-30T05:04:40.132Z,92.00
2023-03-30T05:05:40.125Z,112.00
2023-03-30T05:06:40.123Z,140.00
2023-03-30T05:07:40.127Z,164.00
2023-03-30T05:08:41.750Z,184.00
2023-03-30T05:09:40.088Z,208.00
2023-03-30T05:10:40.084Z,208.00
2023-03-30T05:11:40.073Z,208.00
2023-03-30T05:12:40.064Z,188.00
2023-03-30T05:13:40.041Z,160.00
2023-03-30T05:14:40.051Z,168.00
2023-03-30T05:15:40.039Z,172.00
2023-03-30T05:16:40.317Z,168.00
2023-03-30T05:17:40.087Z,160.00
2023-03-30T05:18:40.023Z,152.00
2023-03-30T05:19:39.967Z,168.00
2023-03-30T05:20:40.045Z,188.00
2023-03-30T05:21:39.989Z,212.00
2023-03-30T05:22:39.946Z,248.00
2023-03-30T05:23:39.922Z,288.00
2023-03-30T05:24:39.917Z,332.00
2023-03-30T05:25:39.924Z,372.00
2023-03-30T05:26:39.949Z,416.00
2023-03-30T05:27:39.901Z,444.00
2023-03-30T05:28:39.875Z,432.00
2023-03-30T05:29:39.864Z,416.00
2023-03-30T05:30:39.858Z,420.00
2023-03-30T05:31:40.048Z,440.00
2023-03-30T05:32:39.875Z,496.00
2023-03-30T05:33:41.430Z,564.00
2023-03-30T05:34:39.845Z,644.00
2023-03-30T05:35:39.838Z,728.00
2023-03-30T05:36:39.786Z,808.00
2023-03-30T05:37:39.772Z,876.00
2023-03-30T05:38:39.776Z,1016.00
2023-03-30T05:39:39.747Z,1220.00
2023-03-30T05:40:39.744Z,1380.00
2023-03-30T05:41:39.757Z,1524.00
2023-03-30T05:42:39.725Z,1636.00
2023-03-30T05:43:39.708Z,1728.00
2023-03-30T05:44:39.703Z,1804.00
2023-03-30T05:45:39.694Z,1880.00
2023-03-30T05:46:39.726Z,1952.00
2023-03-30T05:47:39.744Z,2036.00
2023-03-30T05:48:39.691Z,2124.00
2023-03-30T05:49:39.665Z,2212.00
2023-03-30T05:50:39.621Z,2276.00
2023-03-30T05:51:39.929Z,2320.00
2023-03-30T05:52:39.720Z,2308.00
2023-03-30T05:53:39.598Z,2348.00
2023-03-30T05:54:39.577Z,2416.00
2023-03-30T05:55:39.590Z,2324.00
2023-03-30T05:56:39.622Z,2224.00
2023-03-30T05:57:39.548Z,1972.00
2023-03-30T05:58:39.525Z,1836.00
2023-03-30T05:59:39.543Z,1976.00
2023-03-30T06:00:39.521Z,2228.00
2023-03-30T06:01:39.492Z,2456.00
2023-03-30T06:02:39.533Z,2532.00
2023-03-30T06:03:39.604Z,2548.00
2023-03-30T06:04:39.478Z,2504.00
2023-03-30T06:05:39.475Z,2512.00
2023-03-30T06:06:39.439Z,2580.00
2023-03-30T06:07:39.425Z,2676.00
2023-03-30T06:08:39.425Z,2808.00
2023-03-30T06:09:39.436Z,2944.00
2023-03-30T06:10:39.423Z,3076.00
2023-03-30T06:11:39.409Z,3188.00
2023-03-30T06:12:39.396Z,3280.00
2023-03-30T06:13:39.385Z,3320.00
2023-03-30T06:14:39.353Z,3352.00
2023-03-30T06:15:39.346Z,3400.00
2023-03-30T06:16:39.384Z,3436.00
2023-03-30T06:17:39.444Z,3476.00
2023-03-30T06:18:39.338Z,3528.00
2023-03-30T06:19:39.320Z,3572.00
2023-03-30T06:20:39.305Z,3620.00
2023-03-30T06:21:39.273Z,3652.00
2023-03-30T06:22:39.283Z,3656.00
2023-03-30T06:23:39.247Z,3628.00
2023-03-30T06:24:39.238Z,3600.00
2023-03-30T06:25:39.239Z,3588.00
2023-03-30T06:26:39.246Z,3576.00
2023-03-30T06:27:39.207Z,3548.00
2023-03-30T06:28:39.214Z,3492.00
2023-03-30T06:29:39.207Z,3404.00
2023-03-30T06:30:39.225Z,3288.00
2023-03-30T06:31:39.197Z,3168.00
2023-03-30T06:32:39.182Z,3064.00
2023-03-30T06:33:41.695Z,2988.00
2023-03-30T06:34:39.139Z,2928.00
2023-03-30T06:35:39.169Z,2876.00
2023-03-30T06:36:44.622Z,2840.00
2023-03-30T06:37:40.094Z,2836.00
2023-03-30T06:38:39.410Z,2836.00
2023-03-30T06:39:39.070Z,2836.00
2023-03-30T06:40:39.094Z,2716.00
2023-03-30T06:41:39.072Z,2272.00
2023-03-30T06:42:39.041Z,1956.00
2023-03-30T06:43:39.044Z,1732.00
2023-03-30T06:44:39.059Z,1560.00
2023-03-30T06:45:39.052Z,1448.00
2023-03-30T06:46:39.069Z,1408.00
2023-03-30T06:47:39.098Z,1392.00
2023-03-30T06:48:38.992Z,1364.00
2023-03-30T06:49:38.962Z,1256.00
2023-03-30T06:50:38.977Z,1128.00
2023-03-30T06:51:39.043Z,1104.00
2023-03-30T06:52:38.956Z,1128.00
2023-03-30T06:53:38.917Z,1236.00
2023-03-30T06:54:38.972Z,1252.00
2023-03-30T06:55:38.915Z,1208.00
2023-03-30T06:56:38.897Z,1156.00
2023-03-30T06:57:38.904Z,984.00
2023-03-30T06:58:38.860Z,832.00
2023-03-30T06:59:38.865Z,828.00
2023-03-30T07:00:38.857Z,1068.00
2023-03-30T07:01:38.872Z,1352.00
2023-03-30T07:02:38.883Z,1332.00
2023-03-30T07:03:38.806Z,1324.00
2023-03-30T07:04:38.848Z,1476.00
2023-03-30T07:05:38.818Z,1604.00
2023-03-30T07:06:38.781Z,1756.00
2023-03-30T07:07:38.787Z,1932.00
2023-03-30T07:08:38.776Z,2240.00
2023-03-30T07:09:38.766Z,2608.00
2023-03-30T07:10:38.727Z,2596.00
2023-03-30T07:11:38.722Z,2396.00
2023-03-30T07:12:38.729Z,2308.00
2023-03-30T07:13:38.718Z,2268.00
2023-03-30T07:14:38.710Z,2264.00
2023-03-30T07:15:38.687Z,2264.00
2023-03-30T07:16:38.722Z,2368.00
2023-03-30T07:17:38.684Z,2496.00
2023-03-30T07:18:38.765Z,2492.00
2023-03-30T07:19:38.675Z,2536.00
2023-03-30T07:20:38.615Z,2668.00
2023-03-30T07:21:38.611Z,2808.00
2023-03-30T07:22:38.595Z,2876.00
2023-03-30T07:23:38.629Z,2852.00
2023-03-30T07:24:38.577Z,2732.00
2023-03-30T07:25:38.568Z,2636.00
2023-03-30T07:26:38.556Z,2632.00
2023-03-30T07:27:38.567Z,2648.00
2023-03-30T07:28:38.570Z,2660.00
2023-03-30T07:29:38.523Z,2660.00
2023-03-30T07:30:38.543Z,2576.00
2023-03-30T07:31:38.585Z,2368.00
2023-03-30T07:32:38.578Z,2304.00
2023-03-30T07:33:38.526Z,2496.00
2023-03-30T07:34:38.481Z,2592.00
2023-03-30T07:35:38.473Z,2532.00
2023-03-30T07:36:38.444Z,2476.00
2023-03-30T07:37:38.431Z,2496.00
2023-03-30T07:38:38.432Z,2632.00
2023-03-30T07:39:38.458Z,2716.00
2023-03-30T07:40:38.452Z,2708.00
2023-03-30T07:41:38.386Z,2684.00
2023-03-30T07:42:38.430Z,2744.00
2023-03-30T07:43:38.387Z,2992.00
2023-03-30T07:44:38.348Z,3304.00
2023-03-30T07:45:38.367Z,3488.00
2023-03-30T07:46:38.427Z,3508.00
2023-03-30T07:47:38.376Z,3428.00
2023-03-30T07:48:38.338Z,3336.00
2023-03-30T07:49:38.332Z,3264.00
2023-03-30T07:50:38.289Z,3208.00
2023-03-30T07:51:38.299Z,3296.00
2023-03-30T07:52:38.281Z,3344.00
2023-03-30T07:53:38.288Z,3324.00
2023-03-30T07:54:38.247Z,3264.00
2023-03-30T07:55:38.261Z,3232.00
2023-03-30T07:56:38.313Z,3188.00
2023-03-30T07:57:38.205Z,2796.00
2023-03-30T07:58:38.208Z,2540.00
2023-03-30T07:59:38.202Z,2520.00
2023-03-30T08:00:38.167Z,2800.00
2023-03-30T08:01:38.156Z,3520.00
2023-03-30T08:02:38.172Z,4136.00
2023-03-30T08:03:38.256Z,4792.00
2023-03-30T08:04:38.300Z,5220.00
2023-03-30T08:05:38.203Z,5036.00
2023-03-30T08:06:38.105Z,4640.00
2023-03-30T08:07:38.091Z,4672.00
2023-03-30T08:08:38.088Z,4984.00
2023-03-30T08:09:38.083Z,5372.00
2023-03-30T08:10:38.059Z,5728.00
2023-03-30T08:11:38.083Z,5932.00
2023-03-30T08:12:38.074Z,5988.00
2023-03-30T08:13:38.043Z,5536.00
2023-03-30T08:14:38.013Z,5184.00
2023-03-30T08:15:38.023Z,5220.00
2023-03-30T08:16:38.077Z,5400.00
2023-03-30T08:17:38.045Z,5588.00
2023-03-30T08:18:38.000Z,5576.00
2023-03-30T08:19:37.963Z,5516.00
2023-03-30T08:20:37.951Z,5656.00
2023-03-30T08:21:37.956Z,5872.00
2023-03-30T08:22:37.922Z,6020.00
2023-03-30T08:23:38.031Z,6088.00
2023-03-30T08:24:37.913Z,6112.00
2023-03-30T08:25:37.937Z,6104.00
2023-03-30T08:26:37.892Z,5780.00
2023-03-30T08:27:37.947Z,5532.00
2023-03-30T08:28:37.890Z,5700.00
2023-03-30T08:29:37.871Z,5880.00
2023-03-30T08:30:37.841Z,5968.00
2023-03-30T08:31:37.934Z,6012.00
2023-03-30T08:32:37.883Z,6108.00
2023-03-30T08:33:37.833Z,6196.00
2023-03-30T08:34:37.791Z,6344.00
2023-03-30T08:35:37.941Z,6484.00
2023-03-30T08:36:37.817Z,6620.00
2023-03-30T08:37:37.784Z,6612.00
2023-03-30T08:38:37.799Z,6488.00
2023-03-30T08:39:37.853Z,6424.00
2023-03-30T08:40:37.725Z,6492.00
2023-03-30T08:41:37.771Z,6592.00
2023-03-30T08:42:37.750Z,6580.00
2023-03-30T08:43:37.783Z,6712.00
2023-03-30T08:44:37.694Z,6788.00
2023-03-30T08:45:39.594Z,6740.00
2023-03-30T08:46:37.655Z,6676.00
2023-03-30T08:47:37.748Z,6620.00
2023-03-30T08:48:37.981Z,6592.00
2023-03-30T08:49:37.647Z,6628.00
2023-03-30T08:50:37.612Z,6752.00
2023-03-30T08:51:37.600Z,7416.00
2023-03-30T08:52:37.604Z,7232.00
2023-03-30T08:53:37.592Z,6088.00
2023-03-30T08:54:37.578Z,7104.00
2023-03-30T08:55:37.564Z,7712.00
2023-03-30T08:56:37.620Z,6988.00
2023-03-30T08:57:37.552Z,7832.00
2023-03-30T08:58:37.542Z,6668.00
2023-03-30T08:59:37.542Z,7052.00
2023-03-30T09:00:37.538Z,6056.00
2023-03-30T09:01:37.518Z,5760.00
2023-03-30T09:02:38.180Z,5640.00
2023-03-30T09:03:37.491Z,5552.00
2023-03-30T09:04:37.520Z,5228.00
2023-03-30T09:05:37.519Z,5192.00
2023-03-30T09:06:37.437Z,5372.00
2023-03-30T09:07:37.429Z,4280.00
2023-03-30T09:08:37.438Z,4788.00
2023-03-30T09:09:37.453Z,5604.00
2023-03-30T09:10:37.402Z,6728.00
2023-03-30T09:11:37.389Z,6608.00
2023-03-30T09:12:37.411Z,4244.00
2023-03-30T09:13:37.364Z,4420.00
2023-03-30T09:14:37.352Z,7532.00
2023-03-30T09:15:37.357Z,5504.00
2023-03-30T09:16:37.375Z,5356.00
2023-03-30T09:17:37.357Z,5248.00
2023-03-30T09:18:37.311Z,5064.00
2023-03-30T09:19:37.293Z,5356.00
2023-03-30T09:20:37.289Z,7928.00
2023-03-30T09:21:37.265Z,7788.00
2023-03-30T09:22:37.273Z,7304.00
2023-03-30T09:23:37.266Z,6888.00
2023-03-30T09:24:37.231Z,6816.00
2023-03-30T09:25:37.262Z,7056.00
2023-03-30T09:26:37.210Z,6800.00
2023-03-30T09:27:37.205Z,6900.00
2023-03-30T09:28:37.183Z,3780.00
2023-03-30T09:29:37.179Z,6412.00
2023-03-30T09:30:37.196Z,6436.00
2023-03-30T09:31:37.224Z,6532.00
2023-03-30T09:32:37.165Z,6684.00
2023-03-30T09:33:37.149Z,7036.00
2023-03-30T09:34:37.166Z,7400.00
2023-03-30T09:35:37.135Z,7764.00
2023-03-30T09:36:37.098Z,8320.00
2023-03-30T09:37:37.120Z,8968.00
2023-03-30T09:38:37.076Z,9432.00
2023-03-30T09:39:37.088Z,9756.00
2023-03-30T09:40:37.059Z,9920.00
2023-03-30T09:41:37.052Z,9864.00
2023-03-30T09:42:37.038Z,9548.00
2023-03-30T09:43:37.022Z,8020.00
2023-03-30T09:44:37.034Z,9292.00
2023-03-30T09:45:37.036Z,8864.00
2023-03-30T09:46:37.173Z,8680.00
2023-03-30T09:47:37.030Z,8340.00
2023-03-30T09:48:36.984Z,8972.00
2023-03-30T09:49:36.962Z,8796.00
2023-03-30T09:50:36.957Z,8704.00
2023-03-30T09:51:36.932Z,8296.00
2023-03-30T09:52:36.940Z,7924.00
2023-03-30T09:53:36.913Z,7940.00
2023-03-30T09:54:36.910Z,7912.00
2023-03-30T09:55:36.970Z,8112.00
2023-03-30T09:56:36.882Z,8272.00
2023-03-30T09:57:36.903Z,8324.00
2023-03-30T09:58:36.880Z,8404.00
2023-03-30T09:59:36.858Z,8424.00
2023-03-30T10:00:36.851Z,8416.00
2023-03-30T10:01:36.848Z,8448.00
2023-03-30T10:02:36.881Z,8492.00
2023-03-30T10:03:36.953Z,8608.00
2023-03-30T10:04:36.875Z,9040.00
2023-03-30T10:05:36.816Z,9360.00
2023-03-30T10:06:36.826Z,9964.00
2023-03-30T10:07:36.768Z,10292.00
2023-03-30T10:08:36.756Z,10744.00
2023-03-30T10:09:36.761Z,10212.00
2023-03-30T10:10:36.725Z,9792.00
2023-03-30T10:11:36.711Z,9040.00
2023-03-30T10:12:36.696Z,9040.00
2023-03-30T10:13:36.696Z,9640.00
2023-03-30T10:14:36.800Z,9772.00
2023-03-30T10:15:36.716Z,9524.00
2023-03-30T10:16:36.894Z,9360.00
2023-03-30T10:17:36.752Z,9244.00
2023-03-30T10:18:36.650Z,9072.00
2023-03-30T10:19:38.943Z,8924.00
2023-03-30T10:20:36.636Z,8708.00
2023-03-30T10:21:36.600Z,8556.00
2023-03-30T10:22:36.588Z,8560.00
2023-03-30T10:23:36.578Z,8560.00
2023-03-30T10:24:36.573Z,8692.00
2023-03-30T10:25:36.588Z,8676.00
2023-03-30T10:26:36.558Z,8692.00
2023-03-30T10:27:36.540Z,8744.00
2023-03-30T10:28:36.526Z,8820.00
2023-03-30T10:29:36.543Z,8976.00
2023-03-30T10:30:36.504Z,9112.00
2023-03-30T10:31:36.628Z,9160.00
2023-03-30T10:32:36.561Z,9344.00
2023-03-30T10:33:36.516Z,9608.00
2023-03-30T10:34:36.473Z,9672.00
2023-03-30T10:35:36.596Z,9656.00
2023-03-30T10:36:36.435Z,9684.00
2023-03-30T10:37:36.436Z,9588.00
2023-03-30T10:38:36.445Z,9064.00
2023-03-30T10:39:36.402Z,9112.00
2023-03-30T10:40:36.405Z,9480.00
2023-03-30T10:41:36.387Z,8732.00
2023-03-30T10:42:36.398Z,8440.00
2023-03-30T10:43:36.392Z,8252.00
2023-03-30T10:44:36.396Z,8248.00
2023-03-30T10:45:36.351Z,8224.00
2023-03-30T10:46:36.357Z,8432.00
2023-03-30T10:47:36.404Z,8652.00
2023-03-30T10:48:36.303Z,8888.00
2023-03-30T10:49:36.316Z,9256.00
2023-03-30T10:50:36.284Z,9564.00
2023-03-30T10:51:36.284Z,13440.00
2023-03-30T10:52:43.050Z,13440.00
2023-03-30T10:53:37.269Z,12512.00
2023-03-30T10:54:36.341Z,10056.00
2023-03-30T10:55:36.232Z,9180.00
2023-03-30T10:56:36.224Z,8600.00
2023-03-30T10:57:36.198Z,8236.00
2023-03-30T10:58:36.208Z,8640.00
2023-03-30T10:59:36.203Z,8012.00
2023-03-30T11:00:36.166Z,8368.00
2023-03-30T11:01:36.313Z,9008.00
2023-03-30T11:02:37.160Z,8416.00
2023-03-30T11:03:36.225Z,7768.00
2023-03-30T11:04:36.120Z,8028.00
2023-03-30T11:05:36.158Z,8016.00
2023-03-30T11:06:36.095Z,7768.00
2023-03-30T11:07:36.129Z,10828.00
2023-03-30T11:08:36.101Z,11300.00
2023-03-30T11:09:36.074Z,7904.00
2023-03-30T11:10:36.122Z,6324.00
2023-03-30T11:11:36.049Z,6316.00
2023-03-30T11:12:36.033Z,6848.00
2023-03-30T11:13:36.017Z,6456.00
2023-03-30T11:14:36.009Z,4264.00
2023-03-30T11:15:36.013Z,1840.00
2023-03-30T11:16:36.019Z,1336.00
2023-03-30T11:17:36.029Z,844.00
2023-03-30T11:18:35.983Z,564.00
2023-03-30T11:19:35.966Z,512.00
2023-03-30T11:20:35.997Z,672.00
2023-03-30T11:21:35.938Z,812.00
2023-03-30T11:22:35.954Z,888.00
2023-03-30T11:23:35.962Z,932.00
2023-03-30T11:24:35.931Z,964.00
2023-03-30T11:25:35.897Z,1032.00
2023-03-30T11:26:35.893Z,1064.00
2023-03-30T11:27:35.864Z,1056.00
2023-03-30T11:28:35.922Z,1072.00
2023-03-30T11:29:35.839Z,1156.00
2023-03-30T11:30:35.832Z,1164.00
2023-03-30T11:31:35.875Z,1112.00
2023-03-30T11:32:35.849Z,1100.00
2023-03-30T11:33:35.812Z,1148.00
2023-03-30T11:34:35.798Z,1208.00
2023-03-30T11:35:35.790Z,1264.00
2023-03-30T11:36:35.757Z,1256.00
2023-03-30T11:37:35.755Z,1260.00
2023-03-30T11:38:35.765Z,1192.00
2023-03-30T11:39:35.749Z,1152.00
2023-03-30T11:40:35.737Z,1396.00
2023-03-30T11:41:35.745Z,1604.00
2023-03-30T11:42:35.698Z,1756.00
2023-03-30T11:43:35.694Z,1472.00
2023-03-30T11:44:35.671Z,1252.00
2023-03-30T11:45:35.667Z,1364.00
2023-03-30T11:46:35.702Z,1576.00
2023-03-30T11:47:35.667Z,1624.00
2023-03-30T11:48:35.630Z,1636.00
2023-03-30T11:49:35.629Z,1776.00
2023-03-30T11:50:36.232Z,1992.00
2023-03-30T11:51:35.631Z,2204.00
2023-03-30T11:52:35.584Z,2436.00
2023-03-30T11:53:35.581Z,2696.00
2023-03-30T11:54:35.598Z,3032.00
2023-03-30T11:55:35.617Z,3344.00
2023-03-30T11:56:35.547Z,3564.00
2023-03-30T11:57:35.548Z,3752.00
2023-03-30T11:58:35.575Z,4028.00
2023-03-30T11:59:35.659Z,4060.00
2023-03-30T12:00:35.511Z,3624.00
2023-03-30T12:01:35.488Z,3064.00
2023-03-30T12:02:35.542Z,2592.00
2023-03-30T12:03:35.684Z,2240.00
2023-03-30T12:04:37.481Z,2276.00
2023-03-30T12:05:35.441Z,2668.00
2023-03-30T12:06:35.458Z,3188.00
2023-03-30T12:07:35.431Z,3640.00
2023-03-30T12:08:35.428Z,4200.00
2023-03-30T12:09:35.417Z,5144.00
2023-03-30T12:10:35.438Z,6448.00
2023-03-30T12:11:35.404Z,7308.00
2023-03-30T12:12:35.391Z,9060.00
2023-03-30T12:13:48.430Z,8248.00
2023-03-30T12:14:36.350Z,8612.00
2023-03-30T12:15:35.495Z,7916.00
2023-03-30T12:16:35.395Z,7672.00
2023-03-30T12:17:35.402Z,7316.00
2023-03-30T12:18:35.323Z,7068.00
2023-03-30T12:19:42.535Z,6808.00
2023-03-30T12:20:36.274Z,6660.00
2023-03-30T12:21:35.333Z,6536.00
2023-03-30T12:22:35.261Z,6448.00
2023-03-30T12:23:35.256Z,6464.00
2023-03-30T12:24:35.231Z,6552.00
2023-03-30T12:25:35.234Z,6688.00
2023-03-30T12:26:35.207Z,6792.00
2023-03-30T12:27:35.281Z,6764.00
2023-03-30T12:28:50.011Z,6672.00
2023-03-30T12:29:58.430Z,6608.00
2023-03-30T12:30:36.188Z,6576.00
2023-03-30T12:31:35.219Z,6616.00
2023-03-30T12:32:35.336Z,6912.00
2023-03-30T12:33:35.231Z,8788.00
2023-03-30T12:34:35.339Z,8112.00